map of RNS home
RNS - Airport
Location
City:  Rennes, Bretagne, France
Name:St-Jacques
ICAO:LFRN
IATA:RNS

Details
Type:Airport (Aerodrome, Airfield)
Use:Public/Civil
Latitude:4804'19"N (48.071944)
Longitude:143'56"W (-1.732221)
Elevation:124 ft (38 m)
Variation:0.29W (WMM2015v2 magnetic declination)
0.18 annual change
Runways:4
Longest:6890 × 148 ft (2100 × 45 m), paved

Time
Time Zone:UTC+1 (DST+2)
Local Time:

Weather
METAR:LFRN 041400Z AUTO 15010KT 3900 -DZ BR OVC007 06/06 Q1021 TEMPO 18015G25KT RA BKN004
TAF:LFRN 041100Z 0412/0512 17012KT 5000 RA BKN013
TEMPO 0412/0416 18015G25KT 4000 RA BKN004
BECMG 0416/0418 VRB03KT 9999 NSW BKN008
TEMPO 0416/0510 3000 BR BKN002
BECMG 0507/0509 16010KT

Related Locations
Nearby:
Farthest:CHT: 12045 mi / 19385 km
Waitangi [Tuuta], CIT, NZ

Find:

   beyond  
but within

Other Information
Maps:
NOTAMs:
Links:
Sources:

  
  • flag of France
  • flag of Bretagne
  

Sectional Chart

Flight Planning
at skyvector.com

Satellite Image

Google Maps Satellite view

 

Copyright © 2004-2019 Karl L. Swartz. All rights reserved.
The Great Circle Mapper name and logo are trademarks of the Great Circle Mapper.
All other trademarks mentioned herein belong to their respective owners.
Please see credits for attibutions and further copyright information.

  Follow gcmap on Facebook Follow gcmap on Twitter GCmap on LinkedIn

hCard Microformat

Geo Microformat